sensor_id;sensor_type;location;lat;lon;timestamp;pressure;altitude;pressure_sealevel;temperature;humidity
9059;BME280;4564;42.034;25.834;2024-03-02T00:01:27;99886.06;;;8.54;100.00
9059;BME280;4564;42.034;25.834;2024-03-02T00:03:53;99889.16;;;8.51;100.00
9059;BME280;4564;42.034;25.834;2024-03-02T00:06:20;99883.81;;;8.43;100.00
9059;BME280;4564;42.034;25.834;2024-03-02T00:08:49;99872.97;;;8.43;100.00
9059;BME280;4564;42.034;25.834;2024-03-02T00:11:16;99876.25;;;8.53;100.00
9059;BME280;4564;42.034;25.834;2024-03-02T00:13:43;99867.50;;;8.51;100.00
9059;BME280;4564;42.034;25.834;2024-03-02T00:16:11;99865.44;;;8.53;100.00
9059;BME280;4564;42.034;25.834;2024-03-02T00:18:38;99855.69;;;8.52;100.00
9059;BME280;4564;42.034;25.834;2024-03-02T00:21:05;99846.34;;;8.55;100.00
9059;BME280;4564;42.034;25.834;2024-03-02T00:23:34;99861.81;;;8.46;100.00
9059;BME280;4564;42.034;25.834;2024-03-02T00:26:03;99856.47;;;8.38;100.00
9059;BME280;4564;42.034;25.834;2024-03-02T00:28:30;99847.34;;;8.39;100.00
9059;BME280;4564;42.034;25.834;2024-03-02T00:30:59;99850.78;;;8.48;100.00
9059;BME280;4564;42.034;25.834;2024-03-02T00:33:26;99845.78;;;8.45;100.00
9059;BME280;4564;42.034;25.834;2024-03-02T00:35:54;99848.09;;;8.48;100.00
9059;BME280;4564;42.034;25.834;2024-03-02T00:38:21;99859.75;;;8.48;100.00
9059;BME280;4564;42.034;25.834;2024-03-02T00:40:47;99863.78;;;8.52;100.00
9059;BME280;4564;42.034;25.834;2024-03-02T00:43:25;99850.28;;;8.52;100.00
9059;BME280;4564;42.034;25.834;2024-03-02T00:46:05;99835.13;;;8.43;100.00
9059;BME280;4564;42.034;25.834;2024-03-02T00:48:31;99841.28;;;8.37;100.00
9059;BME280;4564;42.034;25.834;2024-03-02T00:51:01;99833.66;;;8.40;100.00
9059;BME280;4564;42.034;25.834;2024-03-02T00:53:28;99839.97;;;8.33;100.00
9059;BME280;4564;42.034;25.834;2024-03-02T00:55:55;99829.81;;;8.35;100.00
9059;BME280;4564;42.034;25.834;2024-03-02T00:58:23;99828.97;;;8.34;100.00
9059;BME280;4564;42.034;25.834;2024-03-02T01:00:50;99822.59;;;8.27;100.00
9059;BME280;4564;42.034;25.834;2024-03-02T01:03:17;99825.97;;;8.29;100.00
9059;BME280;4564;42.034;25.834;2024-03-02T01:05:44;99828.53;;;8.31;100.00
9059;BME280;4564;42.034;25.834;2024-03-02T01:08:11;99821.63;;;8.43;100.00
9059;BME280;4564;42.034;25.834;2024-03-02T01:10:37;99829.66;;;8.36;100.00
9059;BME280;4564;42.034;25.834;2024-03-02T01:13:04;99836.06;;;8.35;100.00
9059;BME280;4564;42.034;25.834;2024-03-02T01:15:32;99841.66;;;8.34;100.00
9059;BME280;4564;42.034;25.834;2024-03-02T01:17:59;99830.84;;;8.34;100.00
9059;BME280;4564;42.034;25.834;2024-03-02T01:20:26;99841.66;;;8.34;100.00
9059;BME280;4564;42.034;25.834;2024-03-02T01:22:53;99835.22;;;8.35;100.00
9059;BME280;4564;42.034;25.834;2024-03-02T01:25:20;99824.25;;;8.36;100.00
9059;BME280;4564;42.034;25.834;2024-03-02T01:27:47;99838.50;;;8.30;100.00
9059;BME280;4564;42.034;25.834;2024-03-02T01:30:13;99831.22;;;8.31;100.00
9059;BME280;4564;42.034;25.834;2024-03-02T01:32:41;99827.28;;;8.33;100.00
9059;BME280;4564;42.034;25.834;2024-03-02T01:35:08;99824.69;;;8.40;100.00
9059;BME280;4564;42.034;25.834;2024-03-02T01:37:34;99821.72;;;8.35;100.00
9059;BME280;4564;42.034;25.834;2024-03-02T01:40:01;99817.59;;;8.39;100.00
9059;BME280;4564;42.034;25.834;2024-03-02T01:42:34;99815.00;;;8.31;100.00
9059;BME280;4564;42.034;25.834;2024-03-02T01:45:01;99816.31;;;8.35;100.00
9059;BME280;4564;42.034;25.834;2024-03-02T01:47:27;99811.75;;;8.35;100.00
9059;BME280;4564;42.034;25.834;2024-03-02T01:49:55;99811.00;;;8.41;100.00
9059;BME280;4564;42.034;25.834;2024-03-02T01:52:22;99819.47;;;8.38;100.00
9059;BME280;4564;42.034;25.834;2024-03-02T01:54:48;99820.50;;;8.37;100.00
9059;BME280;4564;42.034;25.834;2024-03-02T01:57:15;99826.97;;;8.28;100.00
9059;BME280;4564;42.034;25.834;2024-03-02T01:59:41;99822.31;;;8.22;100.00
9059;BME280;4564;42.034;25.834;2024-03-02T02:02:08;99823.44;;;8.28;100.00
9059;BME280;4564;42.034;25.834;2024-03-02T02:04:35;99826.13;;;8.28;100.00
9059;BME280;4564;42.034;25.834;2024-03-02T02:07:03;99827.59;;;8.16;100.00
9059;BME280;4564;42.034;25.834;2024-03-02T02:09:29;99822.69;;;8.19;100.00
9059;BME280;4564;42.034;25.834;2024-03-02T02:11:56;99823.53;;;8.20;100.00
9059;BME280;4564;42.034;25.834;2024-03-02T02:14:22;99818.41;;;8.25;100.00
9059;BME280;4564;42.034;25.834;2024-03-02T02:16:49;99811.91;;;8.34;100.00
9059;BME280;4564;42.034;25.834;2024-03-02T02:19:17;99813.31;;;8.45;100.00
9059;BME280;4564;42.034;25.834;2024-03-02T02:21:47;99811.84;;;8.42;100.00
9059;BME280;4564;42.034;25.834;2024-03-02T02:24:14;99808.66;;;8.38;100.00
9059;BME280;4564;42.034;25.834;2024-03-02T02:26:40;99805.38;;;8.43;100.00
9059;BME280;4564;42.034;25.834;2024-03-02T02:29:07;99799.16;;;8.42;100.00
9059;BME280;4564;42.034;25.834;2024-03-02T02:31:36;99805.09;;;8.38;100.00
9059;BME280;4564;42.034;25.834;2024-03-02T02:34:03;99795.97;;;8.39;100.00
9059;BME280;4564;42.034;25.834;2024-03-02T02:36:29;99802.69;;;8.43;100.00
9059;BME280;4564;42.034;25.834;2024-03-02T02:38:57;99812.31;;;8.31;100.00
9059;BME280;4564;42.034;25.834;2024-03-02T02:41:25;99808.84;;;8.37;100.00
9059;BME280;4564;42.034;25.834;2024-03-02T02:43:52;99800.44;;;8.32;100.00
9059;BME280;4564;42.034;25.834;2024-03-02T02:46:18;99805.34;;;8.28;100.00
9059;BME280;4564;42.034;25.834;2024-03-02T02:48:45;99809.38;;;8.32;100.00
9059;BME280;4564;42.034;25.834;2024-03-02T02:51:12;99816.06;;;8.22;100.00
9059;BME280;4564;42.034;25.834;2024-03-02T02:53:38;99800.50;;;8.24;100.00
9059;BME280;4564;42.034;25.834;2024-03-02T02:56:07;99808.91;;;8.29;100.00
9059;BME280;4564;42.034;25.834;2024-03-02T02:58:33;99805.50;;;8.35;100.00
9059;BME280;4564;42.034;25.834;2024-03-02T03:01:00;99808.44;;;8.25;100.00
9059;BME280;4564;42.034;25.834;2024-03-02T03:03:27;99803.34;;;8.30;100.00
9059;BME280;4564;42.034;25.834;2024-03-02T03:05:53;99804.66;;;8.34;100.00
9059;BME280;4564;42.034;25.834;2024-03-02T03:08:20;99801.50;;;8.31;100.00
9059;BME280;4564;42.034;25.834;2024-03-02T03:10:48;99795.69;;;8.34;100.00
9059;BME280;4564;42.034;25.834;2024-03-02T03:13:16;99793.38;;;8.31;100.00
9059;BME280;4564;42.034;25.834;2024-03-02T03:15:43;99791.00;;;8.28;100.00
9059;BME280;4564;42.034;25.834;2024-03-02T03:18:10;99802.97;;;8.33;100.00
9059;BME280;4564;42.034;25.834;2024-03-02T03:20:37;99805.75;;;8.25;100.00
9059;BME280;4564;42.034;25.834;2024-03-02T03:23:03;99809.22;;;8.34;100.00
9059;BME280;4564;42.034;25.834;2024-03-02T03:25:30;99812.19;;;8.39;100.00
9059;BME280;4564;42.034;25.834;2024-03-02T03:27:56;99806.19;;;8.29;100.00
9059;BME280;4564;42.034;25.834;2024-03-02T03:30:24;99789.28;;;8.35;100.00
9059;BME280;4564;42.034;25.834;2024-03-02T03:32:50;99782.47;;;8.39;100.00
9059;BME280;4564;42.034;25.834;2024-03-02T03:35:17;99772.06;;;8.28;100.00
9059;BME280;4564;42.034;25.834;2024-03-02T03:37:43;99784.56;;;8.29;100.00
9059;BME280;4564;42.034;25.834;2024-03-02T03:40:10;99785.91;;;8.33;100.00
9059;BME280;4564;42.034;25.834;2024-03-02T03:42:37;99788.03;;;8.37;100.00
9059;BME280;4564;42.034;25.834;2024-03-02T03:45:04;99786.47;;;8.43;100.00
9059;BME280;4564;42.034;25.834;2024-03-02T03:47:32;99795.13;;;8.38;100.00
9059;BME280;4564;42.034;25.834;2024-03-02T03:49:59;99791.97;;;8.35;100.00
9059;BME280;4564;42.034;25.834;2024-03-02T03:52:25;99793.00;;;8.34;100.00
9059;BME280;4564;42.034;25.834;2024-03-02T03:54:52;99777.97;;;8.31;100.00
9059;BME280;4564;42.034;25.834;2024-03-02T03:57:18;99784.31;;;8.38;100.00
9059;BME280;4564;42.034;25.834;2024-03-02T03:59:45;99777.63;;;8.34;100.00
9059;BME280;4564;42.034;25.834;2024-03-02T04:02:12;99779.47;;;8.34;100.00
9059;BME280;4564;42.034;25.834;2024-03-02T04:04:40;99779.75;;;8.39;100.00
9059;BME280;4564;42.034;25.834;2024-03-02T04:07:07;99777.06;;;8.39;100.00
9059;BME280;4564;42.034;25.834;2024-03-02T04:09:33;99772.66;;;8.38;100.00
9059;BME280;4564;42.034;25.834;2024-03-02T04:12:00;99785.06;;;8.32;100.00
9059;BME280;4564;42.034;25.834;2024-03-02T04:14:26;99785.91;;;8.33;100.00
9059;BME280;4564;42.034;25.834;2024-03-02T04:16:53;99783.47;;;8.38;100.00
9059;BME280;4564;42.034;25.834;2024-03-02T04:19:19;99781.81;;;8.37;100.00
9059;BME280;4564;42.034;25.834;2024-03-02T04:21:47;99772.09;;;8.42;100.00
9059;BME280;4564;42.034;25.834;2024-03-02T04:24:14;99772.38;;;8.33;100.00
9059;BME280;4564;42.034;25.834;2024-03-02T04:26:41;99784.75;;;8.27;100.00
9059;BME280;4564;42.034;25.834;2024-03-02T04:29:07;99773.75;;;8.29;100.00
9059;BME280;4564;42.034;25.834;2024-03-02T04:31:34;99774.75;;;8.36;100.00
9059;BME280;4564;42.034;25.834;2024-03-02T04:34:00;99776.41;;;8.37;100.00
9059;BME280;4564;42.034;25.834;2024-03-02T04:36:27;99776.97;;;8.47;100.00
9059;BME280;4564;42.034;25.834;2024-03-02T04:38:55;99783.88;;;8.35;100.00
9059;BME280;4564;42.034;25.834;2024-03-02T04:41:22;99778.91;;;8.38;100.00
9059;BME280;4564;42.034;25.834;2024-03-02T04:43:48;99789.38;;;8.41;100.00
9059;BME280;4564;42.034;25.834;2024-03-02T04:46:15;99788.16;;;8.44;100.00
9059;BME280;4564;42.034;25.834;2024-03-02T04:48:42;99786.84;;;8.40;100.00
9059;BME280;4564;42.034;25.834;2024-03-02T04:51:09;99787.88;;;8.39;100.00
9059;BME280;4564;42.034;25.834;2024-03-02T04:53:36;99793.09;;;8.40;100.00
9059;BME280;4564;42.034;25.834;2024-03-02T04:56:05;99791.25;;;8.41;100.00
9059;BME280;4564;42.034;25.834;2024-03-02T04:58:45;99792.25;;;8.40;100.00
9059;BME280;4564;42.034;25.834;2024-03-02T05:01:12;99793.84;;;8.34;100.00
9059;BME280;4564;42.034;25.834;2024-03-02T05:03:38;99798.41;;;8.34;100.00
9059;BME280;4564;42.034;25.834;2024-03-02T05:06:05;99790.25;;;8.19;100.00
9059;BME280;4564;42.034;25.834;2024-03-02T05:08:33;99793.25;;;8.24;100.00
9059;BME280;4564;42.034;25.834;2024-03-02T05:10:59;99803.28;;;8.16;100.00
9059;BME280;4564;42.034;25.834;2024-03-02T05:13:48;99799.84;;;8.22;100.00
9059;BME280;4564;42.034;25.834;2024-03-02T05:16:14;99796.28;;;8.07;100.00
9059;BME280;4564;42.034;25.834;2024-03-02T05:18:41;99789.13;;;8.14;100.00
9059;BME280;4564;42.034;25.834;2024-03-02T05:21:08;99784.06;;;8.11;100.00
9059;BME280;4564;42.034;25.834;2024-03-02T05:23:34;99787.41;;;7.98;100.00
9059;BME280;4564;42.034;25.834;2024-03-02T05:26:01;99791.59;;;8.00;100.00
9059;BME280;4564;42.034;25.834;2024-03-02T05:28:28;99795.25;;;8.08;100.00
9059;BME280;4564;42.034;25.834;2024-03-02T05:30:56;99797.41;;;8.12;100.00
9059;BME280;4564;42.034;25.834;2024-03-02T05:33:22;99793.41;;;8.23;100.00
9059;BME280;4564;42.034;25.834;2024-03-02T05:35:49;99794.44;;;8.22;100.00
9059;BME280;4564;42.034;25.834;2024-03-02T05:38:16;99794.03;;;8.10;100.00
9059;BME280;4564;42.034;25.834;2024-03-02T05:40:42;99797.81;;;8.24;100.00
9059;BME280;4564;42.034;25.834;2024-03-02T05:43:09;99802.66;;;8.28;100.00
9059;BME280;4564;42.034;25.834;2024-03-02T05:45:36;99796.81;;;8.39;100.00
9059;BME280;4564;42.034;25.834;2024-03-02T05:48:04;99801.31;;;8.47;100.00
9059;BME280;4564;42.034;25.834;2024-03-02T05:50:31;99810.63;;;8.59;100.00
9059;BME280;4564;42.034;25.834;2024-03-02T05:52:57;99814.25;;;8.66;100.00
9059;BME280;4564;42.034;25.834;2024-03-02T05:55:24;99812.59;;;8.65;100.00
9059;BME280;4564;42.034;25.834;2024-03-02T05:57:50;99812.13;;;8.62;100.00
9059;BME280;4564;42.034;25.834;2024-03-02T06:00:36;99805.88;;;8.61;100.00
9059;BME280;4564;42.034;25.834;2024-03-02T06:03:05;99803.16;;;8.61;100.00
9059;BME280;4564;42.034;25.834;2024-03-02T06:05:33;99803.44;;;8.81;100.00
9059;BME280;4564;42.034;25.834;2024-03-02T06:07:59;99813.13;;;8.75;100.00
9059;BME280;4564;42.034;25.834;2024-03-02T06:10:26;99806.63;;;8.84;100.00
9059;BME280;4564;42.034;25.834;2024-03-02T06:12:52;99800.59;;;9.04;100.00
9059;BME280;4564;42.034;25.834;2024-03-02T06:15:19;99806.84;;;9.04;100.00
9059;BME280;4564;42.034;25.834;2024-03-02T06:17:46;99800.50;;;8.97;100.00
9059;BME280;4564;42.034;25.834;2024-03-02T06:20:14;99806.31;;;8.94;100.00
9059;BME280;4564;42.034;25.834;2024-03-02T06:22:40;99812.31;;;8.90;100.00
9059;BME280;4564;42.034;25.834;2024-03-02T06:25:07;99813.88;;;8.99;100.00
9059;BME280;4564;42.034;25.834;2024-03-02T06:27:33;99809.91;;;9.16;100.00
9059;BME280;4564;42.034;25.834;2024-03-02T06:30:00;99806.94;;;9.11;100.00
9059;BME280;4564;42.034;25.834;2024-03-02T06:32:29;99809.75;;;9.03;100.00
9059;BME280;4564;42.034;25.834;2024-03-02T06:34:55;99808.91;;;9.02;100.00
9059;BME280;4564;42.034;25.834;2024-03-02T06:37:23;99814.09;;;9.18;100.00
9059;BME280;4564;42.034;25.834;2024-03-02T06:39:50;99808.91;;;9.17;100.00
9059;BME280;4564;42.034;25.834;2024-03-02T06:42:16;99809.22;;;9.28;100.00
9059;BME280;4564;42.034;25.834;2024-03-02T06:44:43;99814.38;;;9.23;100.00
9059;BME280;4564;42.034;25.834;2024-03-02T06:47:09;99808.53;;;9.41;100.00
9059;BME280;4564;42.034;25.834;2024-03-02T06:49:36;99810.75;;;9.52;100.00
9059;BME280;4564;42.034;25.834;2024-03-02T06:52:03;99794.50;;;9.52;100.00
9059;BME280;4564;42.034;25.834;2024-03-02T06:54:31;99809.31;;;9.56;100.00
9059;BME280;4564;42.034;25.834;2024-03-02T06:56:57;99818.44;;;9.70;100.00
9059;BME280;4564;42.034;25.834;2024-03-02T06:59:24;99830.63;;;9.81;100.00
9059;BME280;4564;42.034;25.834;2024-03-02T07:01:53;99835.28;;;9.87;100.00
9059;BME280;4564;42.034;25.834;2024-03-02T07:04:20;99834.75;;;9.77;100.00
9059;BME280;4564;42.034;25.834;2024-03-02T07:06:46;99825.31;;;9.73;100.00
9059;BME280;4564;42.034;25.834;2024-03-02T07:09:13;99815.66;;;9.63;100.00
9059;BME280;4564;42.034;25.834;2024-03-02T07:11:41;99824.34;;;9.80;100.00
9059;BME280;4564;42.034;25.834;2024-03-02T07:14:07;99845.19;;;9.80;100.00
9059;BME280;4564;42.034;25.834;2024-03-02T07:16:34;99834.50;;;9.93;100.00
9059;BME280;4564;42.034;25.834;2024-03-02T07:19:05;99837.75;;;10.09;100.00
9059;BME280;4564;42.034;25.834;2024-03-02T07:21:31;99842.06;;;10.19;100.00
9059;BME280;4564;42.034;25.834;2024-03-02T07:23:58;99843.97;;;10.25;100.00
9059;BME280;4564;42.034;25.834;2024-03-02T07:26:28;99827.34;;;10.34;100.00
9059;BME280;4564;42.034;25.834;2024-03-02T07:28:56;99828.44;;;10.40;100.00
9059;BME280;4564;42.034;25.834;2024-03-02T07:31:23;99829.59;;;10.59;100.00
9059;BME280;4564;42.034;25.834;2024-03-02T07:33:50;99825.31;;;10.71;100.00
9059;BME280;4564;42.034;25.834;2024-03-02T07:36:16;99824.78;;;10.88;100.00
9059;BME280;4564;42.034;25.834;2024-03-02T07:38:44;99822.09;;;10.95;100.00
9059;BME280;4564;42.034;25.834;2024-03-02T07:41:11;99827.34;;;11.03;100.00
9059;BME280;4564;42.034;25.834;2024-03-02T07:43:38;99822.44;;;11.26;100.00
9059;BME280;4564;42.034;25.834;2024-03-02T07:46:06;99830.22;;;11.36;100.00
9059;BME280;4564;42.034;25.834;2024-03-02T07:48:33;99829.00;;;11.52;100.00
9059;BME280;4564;42.034;25.834;2024-03-02T07:50:59;99822.13;;;11.62;99.64
9059;BME280;4564;42.034;25.834;2024-03-02T07:53:27;99826.38;;;11.85;99.08
9059;BME280;4564;42.034;25.834;2024-03-02T07:55:54;99825.75;;;11.76;98.45
9059;BME280;4564;42.034;25.834;2024-03-02T07:58:22;99828.72;;;12.01;98.74
9059;BME280;4564;42.034;25.834;2024-03-02T08:00:48;99827.25;;;12.11;97.13
9059;BME280;4564;42.034;25.834;2024-03-02T08:03:16;99820.34;;;12.29;97.27
9059;BME280;4564;42.034;25.834;2024-03-02T08:05:43;99828.88;;;12.65;95.90
9059;BME280;4564;42.034;25.834;2024-03-02T08:08:11;99831.72;;;13.10;93.66
9059;BME280;4564;42.034;25.834;2024-03-02T08:10:37;99820.84;;;12.96;93.46
9059;BME280;4564;42.034;25.834;2024-03-02T08:13:04;99819.34;;;13.14;92.55
9059;BME280;4564;42.034;25.834;2024-03-02T08:15:30;99815.94;;;13.25;92.34
9059;BME280;4564;42.034;25.834;2024-03-02T08:17:57;99816.22;;;13.17;91.74
9059;BME280;4564;42.034;25.834;2024-03-02T08:20:25;99819.13;;;13.22;91.66
9059;BME280;4564;42.034;25.834;2024-03-02T08:22:52;99823.47;;;13.29;90.95
9059;BME280;4564;42.034;25.834;2024-03-02T08:25:20;99844.03;;;13.32;91.89
9059;BME280;4564;42.034;25.834;2024-03-02T08:27:47;99837.34;;;13.28;91.71
9059;BME280;4564;42.034;25.834;2024-03-02T08:30:13;99835.47;;;13.22;91.18
9059;BME280;4564;42.034;25.834;2024-03-02T08:32:40;99831.28;;;13.13;91.83
9059;BME280;4564;42.034;25.834;2024-03-02T08:35:07;99828.53;;;13.26;92.23
9059;BME280;4564;42.034;25.834;2024-03-02T08:37:35;99837.22;;;13.54;90.89
9059;BME280;4564;42.034;25.834;2024-03-02T08:40:03;99836.97;;;13.56;90.43
9059;BME280;4564;42.034;25.834;2024-03-02T08:42:32;99832.75;;;13.22;91.64
9059;BME280;4564;42.034;25.834;2024-03-02T08:44:59;99830.41;;;13.25;91.88
9059;BME280;4564;42.034;25.834;2024-03-02T08:47:26;99838.78;;;13.24;91.79
9059;BME280;4564;42.034;25.834;2024-03-02T08:49:53;99843.25;;;13.56;90.65
9059;BME280;4564;42.034;25.834;2024-03-02T08:52:19;99841.16;;;13.96;90.40
9059;BME280;4564;42.034;25.834;2024-03-02T08:54:47;99843.28;;;14.19;88.18
9059;BME280;4564;42.034;25.834;2024-03-02T08:57:14;99838.81;;;14.00;87.98
9059;BME280;4564;42.034;25.834;2024-03-02T08:59:41;99845.88;;;14.39;87.73
9059;BME280;4564;42.034;25.834;2024-03-02T09:02:07;99834.38;;;14.30;86.54
9059;BME280;4564;42.034;25.834;2024-03-02T09:04:34;99830.34;;;14.33;85.78
9059;BME280;4564;42.034;25.834;2024-03-02T09:07:00;99829.34;;;14.27;86.98
9059;BME280;4564;42.034;25.834;2024-03-02T09:09:27;99821.28;;;14.14;87.38
9059;BME280;4564;42.034;25.834;2024-03-02T09:11:55;99818.94;;;14.17;87.71
9059;BME280;4564;42.034;25.834;2024-03-02T09:14:23;99821.09;;;14.40;86.68
9059;BME280;4564;42.034;25.834;2024-03-02T09:16:49;99817.47;;;14.46;86.07
9059;BME280;4564;42.034;25.834;2024-03-02T09:19:16;99830.72;;;14.67;85.18
9059;BME280;4564;42.034;25.834;2024-03-02T09:21:44;99825.25;;;14.67;84.59
9059;BME280;4564;42.034;25.834;2024-03-02T09:24:10;99838.69;;;14.44;85.71
9059;BME280;4564;42.034;25.834;2024-03-02T09:26:37;99847.78;;;14.81;85.55
9059;BME280;4564;42.034;25.834;2024-03-02T09:29:06;99849.25;;;15.02;83.15
9059;BME280;4564;42.034;25.834;2024-03-02T09:31:32;99844.25;;;14.99;83.41
9059;BME280;4564;42.034;25.834;2024-03-02T09:33:59;99833.41;;;15.10;83.30
9059;BME280;4564;42.034;25.834;2024-03-02T09:36:25;99837.56;;;15.13;83.35
9059;BME280;4564;42.034;25.834;2024-03-02T09:38:52;99830.19;;;15.13;84.52
9059;BME280;4564;42.034;25.834;2024-03-02T09:41:18;99828.13;;;15.45;81.68
9059;BME280;4564;42.034;25.834;2024-03-02T09:43:45;99833.53;;;15.16;82.50
9059;BME280;4564;42.034;25.834;2024-03-02T09:46:13;99826.28;;;15.39;81.93
9059;BME280;4564;42.034;25.834;2024-03-02T09:48:40;99825.59;;;15.44;81.28
9059;BME280;4564;42.034;25.834;2024-03-02T09:51:06;99826.06;;;15.41;82.30
9059;BME280;4564;42.034;25.834;2024-03-02T09:53:33;99830.06;;;15.27;82.17
9059;BME280;4564;42.034;25.834;2024-03-02T09:56:00;99829.50;;;15.18;82.77
9059;BME280;4564;42.034;25.834;2024-03-02T09:58:27;99823.19;;;15.36;81.25
9059;BME280;4564;42.034;25.834;2024-03-02T10:00:54;99830.94;;;15.57;79.99
9059;BME280;4564;42.034;25.834;2024-03-02T10:03:22;99827.91;;;15.65;80.29
9059;BME280;4564;42.034;25.834;2024-03-02T10:05:49;99824.81;;;15.73;80.43
9059;BME280;4564;42.034;25.834;2024-03-02T10:08:16;99828.13;;;16.05;78.10
9059;BME280;4564;42.034;25.834;2024-03-02T10:10:43;99827.19;;;16.11;77.40
9059;BME280;4564;42.034;25.834;2024-03-02T10:13:10;99831.84;;;15.69;78.30
9059;BME280;4564;42.034;25.834;2024-03-02T10:15:38;99823.69;;;15.44;81.33
9059;BME280;4564;42.034;25.834;2024-03-02T10:18:07;99809.91;;;15.58;78.96
9059;BME280;4564;42.034;25.834;2024-03-02T10:20:36;99803.28;;;15.77;79.10
9059;BME280;4564;42.034;25.834;2024-03-02T10:23:12;99811.38;;;16.25;77.73
9059;BME280;4564;42.034;25.834;2024-03-02T10:25:39;99804.97;;;16.43;76.19
9059;BME280;4564;42.034;25.834;2024-03-02T10:28:05;99802.09;;;16.26;75.92
9059;BME280;4564;42.034;25.834;2024-03-02T10:30:32;99799.25;;;16.32;77.18
9059;BME280;4564;42.034;25.834;2024-03-02T10:32:59;99801.88;;;16.27;76.66
9059;BME280;4564;42.034;25.834;2024-03-02T10:35:26;99797.19;;;16.05;76.83
9059;BME280;4564;42.034;25.834;2024-03-02T10:37:54;99787.19;;;16.10;76.87
9059;BME280;4564;42.034;25.834;2024-03-02T10:40:21;99781.00;;;16.03;78.09
9059;BME280;4564;42.034;25.834;2024-03-02T10:42:49;99783.66;;;16.33;77.10
9059;BME280;4564;42.034;25.834;2024-03-02T10:45:16;99777.31;;;15.98;77.78
9059;BME280;4564;42.034;25.834;2024-03-02T10:47:43;99765.94;;;15.71;79.14
9059;BME280;4564;42.034;25.834;2024-03-02T10:50:09;99761.56;;;15.93;78.72
9059;BME280;4564;42.034;25.834;2024-03-02T10:52:36;99764.91;;;15.95;79.09
9059;BME280;4564;42.034;25.834;2024-03-02T10:55:06;99753.06;;;15.60;79.23
9059;BME280;4564;42.034;25.834;2024-03-02T10:57:38;99755.91;;;15.35;81.13
9059;BME280;4564;42.034;25.834;2024-03-02T11:00:07;99753.00;;;15.48;80.63
9059;BME280;4564;42.034;25.834;2024-03-02T11:02:40;99761.44;;;15.28;81.56
9059;BME280;4564;42.034;25.834;2024-03-02T11:05:09;99764.19;;;15.28;82.12
9059;BME280;4564;42.034;25.834;2024-03-02T11:07:36;99768.59;;;15.29;81.71
9059;BME280;4564;42.034;25.834;2024-03-02T11:10:04;99770.44;;;15.17;81.37
9059;BME280;4564;42.034;25.834;2024-03-02T11:12:35;99768.13;;;14.66;83.67
9059;BME280;4564;42.034;25.834;2024-03-02T11:15:03;99761.50;;;14.55;84.40
9059;BME280;4564;42.034;25.834;2024-03-02T11:17:31;99767.16;;;14.36;85.41
9059;BME280;4564;42.034;25.834;2024-03-02T11:19:57;99762.94;;;14.40;85.49
9059;BME280;4564;42.034;25.834;2024-03-02T11:22:24;99758.06;;;14.17;85.61
9059;BME280;4564;42.034;25.834;2024-03-02T11:24:52;99761.91;;;14.09;86.37
9059;BME280;4564;42.034;25.834;2024-03-02T11:30:01;99762.53;;;13.86;87.96
9059;BME280;4564;42.034;25.834;2024-03-02T11:32:28;99754.81;;;13.77;89.10
9059;BME280;4564;42.034;25.834;2024-03-02T11:34:55;99754.44;;;13.73;88.24
9059;BME280;4564;42.034;25.834;2024-03-02T11:37:22;99756.03;;;13.56;89.46
9059;BME280;4564;42.034;25.834;2024-03-02T11:39:49;99754.13;;;13.57;90.07
9059;BME280;4564;42.034;25.834;2024-03-02T11:42:16;99750.75;;;13.61;90.22
9059;BME280;4564;42.034;25.834;2024-03-02T11:44:43;99745.47;;;13.66;89.76
9059;BME280;4564;42.034;25.834;2024-03-02T11:47:12;99746.47;;;13.72;88.72
9059;BME280;4564;42.034;25.834;2024-03-02T11:49:43;99746.09;;;13.68;88.88
9059;BME280;4564;42.034;25.834;2024-03-02T11:52:10;99741.63;;;13.49;89.58
9059;BME280;4564;42.034;25.834;2024-03-02T11:54:37;99750.88;;;13.41;90.16
9059;BME280;4564;42.034;25.834;2024-03-02T11:57:06;99754.06;;;13.38;90.00
9059;BME280;4564;42.034;25.834;2024-03-02T11:59:32;99751.59;;;13.24;90.77
9059;BME280;4564;42.034;25.834;2024-03-02T12:01:59;99743.03;;;13.20;90.71
9059;BME280;4564;42.034;25.834;2024-03-02T12:04:27;99743.69;;;13.16;91.62
9059;BME280;4564;42.034;25.834;2024-03-02T12:06:55;99737.59;;;13.20;91.67
9059;BME280;4564;42.034;25.834;2024-03-02T12:09:25;99741.19;;;13.14;92.45
9059;BME280;4564;42.034;25.834;2024-03-02T12:12:00;99738.25;;;13.16;92.45
9059;BME280;4564;42.034;25.834;2024-03-02T12:14:27;99735.25;;;13.24;92.37
9059;BME280;4564;42.034;25.834;2024-03-02T12:16:54;99730.25;;;13.21;92.35
9059;BME280;4564;42.034;25.834;2024-03-02T12:19:21;99730.25;;;13.21;92.48
9059;BME280;4564;42.034;25.834;2024-03-02T12:21:49;99724.41;;;13.11;92.53
9059;BME280;4564;42.034;25.834;2024-03-02T12:24:15;99728.19;;;13.10;93.02
9059;BME280;4564;42.034;25.834;2024-03-02T12:26:42;99732.59;;;13.11;93.26
9059;BME280;4564;42.034;25.834;2024-03-02T12:29:09;99721.91;;;13.16;92.83
9059;BME280;4564;42.034;25.834;2024-03-02T12:31:36;99726.31;;;13.17;92.93
9059;BME280;4564;42.034;25.834;2024-03-02T12:34:03;99721.91;;;13.16;93.18
9059;BME280;4564;42.034;25.834;2024-03-02T12:36:30;99728.09;;;13.29;92.88
9059;BME280;4564;42.034;25.834;2024-03-02T12:38:58;99724.53;;;13.29;92.46
9059;BME280;4564;42.034;25.834;2024-03-02T12:41:25;99726.66;;;13.27;92.45
9059;BME280;4564;42.034;25.834;2024-03-02T12:43:51;99721.38;;;13.32;92.51
9059;BME280;4564;42.034;25.834;2024-03-02T12:46:19;99727.03;;;13.30;92.90
9059;BME280;4564;42.034;25.834;2024-03-02T12:48:45;99727.88;;;13.31;92.97
9059;BME280;4564;42.034;25.834;2024-03-02T12:51:12;99725.19;;;13.24;93.16
9059;BME280;4564;42.034;25.834;2024-03-02T12:53:39;99727.16;;;13.04;94.72
9059;BME280;4564;42.034;25.834;2024-03-02T12:56:08;99727.38;;;13.02;95.17
9059;BME280;4564;42.034;25.834;2024-03-02T12:58:38;99729.63;;;13.19;94.49
9059;BME280;4564;42.034;25.834;2024-03-02T13:01:06;99722.94;;;13.08;94.61
9059;BME280;4564;42.034;25.834;2024-03-02T13:03:35;99728.59;;;13.07;95.17
9059;BME280;4564;42.034;25.834;2024-03-02T13:06:01;99741.25;;;12.94;96.00
9059;BME280;4564;42.034;25.834;2024-03-02T13:08:28;99734.53;;;12.97;96.09
9059;BME280;4564;42.034;25.834;2024-03-02T13:10:54;99736.59;;;13.01;96.28
9059;BME280;4564;42.034;25.834;2024-03-02T13:13:22;99733.94;;;12.88;96.43